sensor_id;sensor_type;location;lat;lon;timestamp;temperature;humidity
38488;DHT22;57384;51.986;4.458;2023-05-28T00:01:50;16.80;47.90
38488;DHT22;57384;51.986;4.458;2023-05-28T00:04:37;16.80;48.00
38488;DHT22;57384;51.986;4.458;2023-05-28T00:07:21;16.70;48.00
38488;DHT22;57384;51.986;4.458;2023-05-28T00:10:05;16.70;48.10
38488;DHT22;57384;51.986;4.458;2023-05-28T00:12:50;16.70;48.20
38488;DHT22;57384;51.986;4.458;2023-05-28T00:15:34;16.60;48.20
38488;DHT22;57384;51.986;4.458;2023-05-28T00:18:18;16.60;48.20
38488;DHT22;57384;51.986;4.458;2023-05-28T00:21:03;16.60;48.30
38488;DHT22;57384;51.986;4.458;2023-05-28T00:23:47;16.50;48.30
38488;DHT22;57384;51.986;4.458;2023-05-28T00:26:31;16.50;48.30
38488;DHT22;57384;51.986;4.458;2023-05-28T00:29:16;16.50;48.40
38488;DHT22;57384;51.986;4.458;2023-05-28T00:32:00;16.40;48.30
38488;DHT22;57384;51.986;4.458;2023-05-28T00:34:44;16.40;48.40
38488;DHT22;57384;51.986;4.458;2023-05-28T00:37:31;16.40;48.50
38488;DHT22;57384;51.986;4.458;2023-05-28T00:40:18;16.40;48.50
38488;DHT22;57384;51.986;4.458;2023-05-28T00:43:02;16.30;48.50
38488;DHT22;57384;51.986;4.458;2023-05-28T00:45:50;16.30;48.60
38488;DHT22;57384;51.986;4.458;2023-05-28T00:48:34;16.30;48.60
38488;DHT22;57384;51.986;4.458;2023-05-28T00:51:19;16.20;48.60
38488;DHT22;57384;51.986;4.458;2023-05-28T00:54:06;16.20;48.60
38488;DHT22;57384;51.986;4.458;2023-05-28T00:56:52;16.20;48.70
38488;DHT22;57384;51.986;4.458;2023-05-28T00:59:40;16.10;48.70
38488;DHT22;57384;51.986;4.458;2023-05-28T01:02:24;16.10;48.70
38488;DHT22;57384;51.986;4.458;2023-05-28T01:05:09;16.10;48.80
38488;DHT22;57384;51.986;4.458;2023-05-28T01:07:53;16.00;48.80
38488;DHT22;57384;51.986;4.458;2023-05-28T01:10:43;16.00;48.90
38488;DHT22;57384;51.986;4.458;2023-05-28T01:13:33;16.00;48.90
38488;DHT22;57384;51.986;4.458;2023-05-28T01:16:21;16.00;48.90
38488;DHT22;57384;51.986;4.458;2023-05-28T01:19:05;16.00;49.00
38488;DHT22;57384;51.986;4.458;2023-05-28T01:24:46;15.90;49.10
38488;DHT22;57384;51.986;4.458;2023-05-28T01:27:30;15.90;49.10
38488;DHT22;57384;51.986;4.458;2023-05-28T01:30:15;15.90;49.10
38488;DHT22;57384;51.986;4.458;2023-05-28T01:33:02;15.90;49.20
38488;DHT22;57384;51.986;4.458;2023-05-28T01:35:46;15.80;49.20
38488;DHT22;57384;51.986;4.458;2023-05-28T01:38:30;15.80;49.20
38488;DHT22;57384;51.986;4.458;2023-05-28T01:41:15;15.80;49.20
38488;DHT22;57384;51.986;4.458;2023-05-28T01:43:59;15.80;49.30
38488;DHT22;57384;51.986;4.458;2023-05-28T01:46:47;15.70;49.30
38488;DHT22;57384;51.986;4.458;2023-05-28T01:49:31;15.70;49.30
38488;DHT22;57384;51.986;4.458;2023-05-28T01:52:16;15.70;49.40
38488;DHT22;57384;51.986;4.458;2023-05-28T01:55:00;15.70;49.40
38488;DHT22;57384;51.986;4.458;2023-05-28T01:57:44;15.60;49.50
38488;DHT22;57384;51.986;4.458;2023-05-28T02:00:28;15.60;49.50
38488;DHT22;57384;51.986;4.458;2023-05-28T02:03:13;15.60;49.50
38488;DHT22;57384;51.986;4.458;2023-05-28T02:05:57;15.50;49.50
38488;DHT22;57384;51.986;4.458;2023-05-28T02:08:41;15.50;49.50
38488;DHT22;57384;51.986;4.458;2023-05-28T02:11:26;15.50;49.70
38488;DHT22;57384;51.986;4.458;2023-05-28T02:14:10;15.50;49.70
38488;DHT22;57384;51.986;4.458;2023-05-28T02:16:55;15.40;49.70
38488;DHT22;57384;51.986;4.458;2023-05-28T02:19:40;15.40;49.70
38488;DHT22;57384;51.986;4.458;2023-05-28T02:22:24;15.40;49.70
38488;DHT22;57384;51.986;4.458;2023-05-28T02:25:08;15.40;49.70
38488;DHT22;57384;51.986;4.458;2023-05-28T02:28:02;15.30;49.80
38488;DHT22;57384;51.986;4.458;2023-05-28T02:30:47;15.30;49.80
38488;DHT22;57384;51.986;4.458;2023-05-28T02:33:31;15.30;49.80
38488;DHT22;57384;51.986;4.458;2023-05-28T02:36:16;15.20;49.80
38488;DHT22;57384;51.986;4.458;2023-05-28T02:39:02;15.20;49.90
38488;DHT22;57384;51.986;4.458;2023-05-28T02:41:46;15.10;49.90
38488;DHT22;57384;51.986;4.458;2023-05-28T02:44:30;15.10;50.00
38488;DHT22;57384;51.986;4.458;2023-05-28T02:47:14;15.10;50.00
38488;DHT22;57384;51.986;4.458;2023-05-28T02:49:59;15.10;50.00
38488;DHT22;57384;51.986;4.458;2023-05-28T02:52:43;15.00;50.00
38488;DHT22;57384;51.986;4.458;2023-05-28T02:55:27;15.00;50.00
38488;DHT22;57384;51.986;4.458;2023-05-28T02:58:12;14.90;50.00
38488;DHT22;57384;51.986;4.458;2023-05-28T03:00:56;14.90;50.00
38488;DHT22;57384;51.986;4.458;2023-05-28T03:03:40;14.90;50.10
38488;DHT22;57384;51.986;4.458;2023-05-28T03:06:28;14.90;50.10
38488;DHT22;57384;51.986;4.458;2023-05-28T03:09:12;14.90;50.10
38488;DHT22;57384;51.986;4.458;2023-05-28T03:11:56;14.80;50.10
38488;DHT22;57384;51.986;4.458;2023-05-28T03:14:42;14.80;50.10
38488;DHT22;57384;51.986;4.458;2023-05-28T03:17:26;14.80;50.10
38488;DHT22;57384;51.986;4.458;2023-05-28T03:20:11;14.80;50.20
38488;DHT22;57384;51.986;4.458;2023-05-28T03:22:55;14.80;50.30
38488;DHT22;57384;51.986;4.458;2023-05-28T03:25:40;14.70;50.20
38488;DHT22;57384;51.986;4.458;2023-05-28T03:28:24;14.70;50.20
38488;DHT22;57384;51.986;4.458;2023-05-28T03:31:08;14.60;50.20
38488;DHT22;57384;51.986;4.458;2023-05-28T03:33:53;14.60;50.20
38488;DHT22;57384;51.986;4.458;2023-05-28T03:36:38;14.60;50.20
38488;DHT22;57384;51.986;4.458;2023-05-28T03:39:22;14.60;50.30
38488;DHT22;57384;51.986;4.458;2023-05-28T03:42:06;14.50;50.30
38488;DHT22;57384;51.986;4.458;2023-05-28T03:44:51;14.50;50.30
38488;DHT22;57384;51.986;4.458;2023-05-28T03:47:35;14.50;50.40
38488;DHT22;57384;51.986;4.458;2023-05-28T03:50:20;14.50;50.40
38488;DHT22;57384;51.986;4.458;2023-05-28T03:53:04;14.50;50.50
38488;DHT22;57384;51.986;4.458;2023-05-28T03:55:56;14.40;50.40
38488;DHT22;57384;51.986;4.458;2023-05-28T03:58:40;14.40;50.40
38488;DHT22;57384;51.986;4.458;2023-05-28T04:01:24;14.40;50.40
38488;DHT22;57384;51.986;4.458;2023-05-28T04:04:09;14.40;50.40
38488;DHT22;57384;51.986;4.458;2023-05-28T04:06:53;14.40;50.50
38488;DHT22;57384;51.986;4.458;2023-05-28T04:09:40;14.30;50.40
38488;DHT22;57384;51.986;4.458;2023-05-28T04:12:24;14.30;50.50
38488;DHT22;57384;51.986;4.458;2023-05-28T04:15:08;14.30;50.50
38488;DHT22;57384;51.986;4.458;2023-05-28T04:17:53;14.30;50.50
38488;DHT22;57384;51.986;4.458;2023-05-28T04:20:37;14.30;50.60
38488;DHT22;57384;51.986;4.458;2023-05-28T04:23:27;14.30;50.60
38488;DHT22;57384;51.986;4.458;2023-05-28T04:26:12;14.30;50.60
38488;DHT22;57384;51.986;4.458;2023-05-28T04:28:56;14.30;50.70
38488;DHT22;57384;51.986;4.458;2023-05-28T04:31:41;14.30;50.70
38488;DHT22;57384;51.986;4.458;2023-05-28T04:34:25;14.30;50.80
38488;DHT22;57384;51.986;4.458;2023-05-28T04:37:09;14.20;50.80
38488;DHT22;57384;51.986;4.458;2023-05-28T04:39:54;14.20;50.80
38488;DHT22;57384;51.986;4.458;2023-05-28T04:42:39;14.20;50.80
38488;DHT22;57384;51.986;4.458;2023-05-28T04:45:23;14.20;50.90
38488;DHT22;57384;51.986;4.458;2023-05-28T04:48:07;14.20;50.90
38488;DHT22;57384;51.986;4.458;2023-05-28T04:50:52;14.20;50.90
38488;DHT22;57384;51.986;4.458;2023-05-28T04:53:45;14.30;51.00
38488;DHT22;57384;51.986;4.458;2023-05-28T04:56:29;14.30;51.00
38488;DHT22;57384;51.986;4.458;2023-05-28T04:59:14;14.30;51.00
38488;DHT22;57384;51.986;4.458;2023-05-28T05:01:58;14.20;51.00
38488;DHT22;57384;51.986;4.458;2023-05-28T05:04:42;14.30;51.10
38488;DHT22;57384;51.986;4.458;2023-05-28T05:07:27;14.30;51.10
38488;DHT22;57384;51.986;4.458;2023-05-28T05:10:11;14.40;51.20
38488;DHT22;57384;51.986;4.458;2023-05-28T05:12:56;14.40;51.20
38488;DHT22;57384;51.986;4.458;2023-05-28T05:15:41;14.40;51.30
38488;DHT22;57384;51.986;4.458;2023-05-28T05:18:25;14.40;51.20
38488;DHT22;57384;51.986;4.458;2023-05-28T05:21:09;14.40;51.20
38488;DHT22;57384;51.986;4.458;2023-05-28T05:23:54;14.50;51.40
38488;DHT22;57384;51.986;4.458;2023-05-28T05:26:38;14.50;51.40
38488;DHT22;57384;51.986;4.458;2023-05-28T05:29:23;14.60;51.40
38488;DHT22;57384;51.986;4.458;2023-05-28T05:32:08;14.60;51.40
38488;DHT22;57384;51.986;4.458;2023-05-28T05:34:52;14.70;52.10
38488;DHT22;57384;51.986;4.458;2023-05-28T05:37:37;14.70;51.50
38488;DHT22;57384;51.986;4.458;2023-05-28T05:40:21;14.80;51.70
38488;DHT22;57384;51.986;4.458;2023-05-28T05:43:05;14.90;51.80
38488;DHT22;57384;51.986;4.458;2023-05-28T05:45:49;15.00;51.80
38488;DHT22;57384;51.986;4.458;2023-05-28T05:48:34;15.10;51.90
38488;DHT22;57384;51.986;4.458;2023-05-28T05:51:18;15.20;51.90
38488;DHT22;57384;51.986;4.458;2023-05-28T05:54:03;15.30;52.10
38488;DHT22;57384;51.986;4.458;2023-05-28T05:56:47;15.30;52.10
38488;DHT22;57384;51.986;4.458;2023-05-28T05:59:31;15.50;52.20
38488;DHT22;57384;51.986;4.458;2023-05-28T06:02:15;15.50;52.00
38488;DHT22;57384;51.986;4.458;2023-05-28T06:04:59;15.70;52.10
38488;DHT22;57384;51.986;4.458;2023-05-28T06:07:44;15.80;52.00
38488;DHT22;57384;51.986;4.458;2023-05-28T06:10:28;15.90;52.10
38488;DHT22;57384;51.986;4.458;2023-05-28T06:13:13;16.00;52.10
38488;DHT22;57384;51.986;4.458;2023-05-28T06:15:57;16.10;52.20
38488;DHT22;57384;51.986;4.458;2023-05-28T06:18:42;16.20;52.20
38488;DHT22;57384;51.986;4.458;2023-05-28T06:21:26;16.20;52.20
38488;DHT22;57384;51.986;4.458;2023-05-28T06:24:10;16.30;52.30
38488;DHT22;57384;51.986;4.458;2023-05-28T06:26:54;16.40;52.40
38488;DHT22;57384;51.986;4.458;2023-05-28T06:29:39;16.50;52.50
38488;DHT22;57384;51.986;4.458;2023-05-28T06:32:23;16.50;52.50
38488;DHT22;57384;51.986;4.458;2023-05-28T06:35:07;16.60;52.50
38488;DHT22;57384;51.986;4.458;2023-05-28T06:37:52;16.70;52.50
38488;DHT22;57384;51.986;4.458;2023-05-28T06:40:36;16.90;52.50
38488;DHT22;57384;51.986;4.458;2023-05-28T06:43:20;17.00;52.40
38488;DHT22;57384;51.986;4.458;2023-05-28T06:46:05;17.10;52.40
38488;DHT22;57384;51.986;4.458;2023-05-28T06:48:49;17.20;52.30
38488;DHT22;57384;51.986;4.458;2023-05-28T06:51:33;17.40;52.30
38488;DHT22;57384;51.986;4.458;2023-05-28T06:54:18;17.50;52.30
38488;DHT22;57384;51.986;4.458;2023-05-28T06:57:02;17.60;52.40
38488;DHT22;57384;51.986;4.458;2023-05-28T06:59:47;17.70;52.50
38488;DHT22;57384;51.986;4.458;2023-05-28T07:02:31;17.70;52.50
38488;DHT22;57384;51.986;4.458;2023-05-28T07:05:15;17.90;52.60
38488;DHT22;57384;51.986;4.458;2023-05-28T07:08:00;18.00;52.70
38488;DHT22;57384;51.986;4.458;2023-05-28T07:10:44;18.10;52.60
38488;DHT22;57384;51.986;4.458;2023-05-28T07:13:28;18.20;52.60
38488;DHT22;57384;51.986;4.458;2023-05-28T07:16:12;18.30;52.60
38488;DHT22;57384;51.986;4.458;2023-05-28T07:18:56;18.50;52.50
38488;DHT22;57384;51.986;4.458;2023-05-28T07:21:41;18.60;52.50
38488;DHT22;57384;51.986;4.458;2023-05-28T07:24:25;18.70;52.30
38488;DHT22;57384;51.986;4.458;2023-05-28T07:27:09;18.90;52.30
38488;DHT22;57384;51.986;4.458;2023-05-28T07:29:54;19.00;52.30
38488;DHT22;57384;51.986;4.458;2023-05-28T07:32:38;19.20;52.20
38488;DHT22;57384;51.986;4.458;2023-05-28T07:35:22;19.40;52.20
38488;DHT22;57384;51.986;4.458;2023-05-28T07:38:07;19.50;52.20
38488;DHT22;57384;51.986;4.458;2023-05-28T07:40:51;19.70;52.20
38488;DHT22;57384;51.986;4.458;2023-05-28T07:43:35;19.80;52.00
38488;DHT22;57384;51.986;4.458;2023-05-28T07:46:20;20.10;52.10
38488;DHT22;57384;51.986;4.458;2023-05-28T07:49:04;20.20;52.00
38488;DHT22;57384;51.986;4.458;2023-05-28T07:51:48;20.50;52.00
38488;DHT22;57384;51.986;4.458;2023-05-28T07:54:33;20.70;51.90
38488;DHT22;57384;51.986;4.458;2023-05-28T07:57:17;20.90;51.80
38488;DHT22;57384;51.986;4.458;2023-05-28T08:00:02;21.10;51.80
38488;DHT22;57384;51.986;4.458;2023-05-28T08:02:46;21.30;51.70
38488;DHT22;57384;51.986;4.458;2023-05-28T08:05:31;21.50;51.70
38488;DHT22;57384;51.986;4.458;2023-05-28T08:08:15;21.70;51.80
38488;DHT22;57384;51.986;4.458;2023-05-28T08:10:59;22.00;51.80
38488;DHT22;57384;51.986;4.458;2023-05-28T08:13:44;22.20;51.80
38488;DHT22;57384;51.986;4.458;2023-05-28T08:16:28;22.30;51.60
38488;DHT22;57384;51.986;4.458;2023-05-28T08:19:12;22.60;51.60
38488;DHT22;57384;51.986;4.458;2023-05-28T08:21:56;22.70;51.50
38488;DHT22;57384;51.986;4.458;2023-05-28T08:24:41;22.90;51.60
38488;DHT22;57384;51.986;4.458;2023-05-28T08:27:25;23.10;51.60
38488;DHT22;57384;51.986;4.458;2023-05-28T08:30:09;23.40;51.70
38488;DHT22;57384;51.986;4.458;2023-05-28T08:32:53;23.50;51.60
38488;DHT22;57384;51.986;4.458;2023-05-28T08:35:38;23.70;51.60
38488;DHT22;57384;51.986;4.458;2023-05-28T08:38:22;23.90;51.50
38488;DHT22;57384;51.986;4.458;2023-05-28T08:41:06;24.10;51.50
38488;DHT22;57384;51.986;4.458;2023-05-28T08:43:51;24.30;51.40
38488;DHT22;57384;51.986;4.458;2023-05-28T08:46:35;24.40;51.10
38488;DHT22;57384;51.986;4.458;2023-05-28T08:49:20;24.60;51.20
38488;DHT22;57384;51.986;4.458;2023-05-28T08:52:07;24.70;51.10
38488;DHT22;57384;51.986;4.458;2023-05-28T08:54:52;24.80;50.90
38488;DHT22;57384;51.986;4.458;2023-05-28T08:57:36;24.90;50.70
38488;DHT22;57384;51.986;4.458;2023-05-28T09:00:21;24.90;50.60
38488;DHT22;57384;51.986;4.458;2023-05-28T09:03:06;25.00;50.40
38488;DHT22;57384;51.986;4.458;2023-05-28T09:05:50;25.00;50.30
38488;DHT22;57384;51.986;4.458;2023-05-28T09:08:34;25.10;50.20
38488;DHT22;57384;51.986;4.458;2023-05-28T09:11:18;25.10;50.20
38488;DHT22;57384;51.986;4.458;2023-05-28T09:14:10;25.20;50.10
38488;DHT22;57384;51.986;4.458;2023-05-28T09:16:54;25.30;50.10
38488;DHT22;57384;51.986;4.458;2023-05-28T09:19:39;25.30;50.00
38488;DHT22;57384;51.986;4.458;2023-05-28T09:22:23;25.40;50.00
38488;DHT22;57384;51.986;4.458;2023-05-28T09:25:07;25.40;49.90
38488;DHT22;57384;51.986;4.458;2023-05-28T09:27:53;25.50;49.80
38488;DHT22;57384;51.986;4.458;2023-05-28T09:30:37;25.60;49.80
38488;DHT22;57384;51.986;4.458;2023-05-28T09:33:21;25.70;49.70
38488;DHT22;57384;51.986;4.458;2023-05-28T09:36:06;25.70;49.40
38488;DHT22;57384;51.986;4.458;2023-05-28T09:38:50;25.70;49.20
38488;DHT22;57384;51.986;4.458;2023-05-28T09:41:34;25.80;49.20
38488;DHT22;57384;51.986;4.458;2023-05-28T09:44:20;25.90;48.90
38488;DHT22;57384;51.986;4.458;2023-05-28T09:47:14;25.90;48.70
38488;DHT22;57384;51.986;4.458;2023-05-28T09:49:58;26.00;48.60
38488;DHT22;57384;51.986;4.458;2023-05-28T09:52:43;26.10;48.60
38488;DHT22;57384;51.986;4.458;2023-05-28T09:55:27;26.20;48.40
38488;DHT22;57384;51.986;4.458;2023-05-28T09:58:12;26.30;48.30
38488;DHT22;57384;51.986;4.458;2023-05-28T10:00:58;26.40;48.20
38488;DHT22;57384;51.986;4.458;2023-05-28T10:03:44;26.50;48.10
38488;DHT22;57384;51.986;4.458;2023-05-28T10:06:32;26.60;48.00
38488;DHT22;57384;51.986;4.458;2023-05-28T10:09:17;26.60;47.60
38488;DHT22;57384;51.986;4.458;2023-05-28T10:12:06;26.70;47.60
38488;DHT22;57384;51.986;4.458;2023-05-28T10:14:52;26.80;47.50
38488;DHT22;57384;51.986;4.458;2023-05-28T10:17:39;26.90;47.20
38488;DHT22;57384;51.986;4.458;2023-05-28T10:20:24;27.00;47.10
38488;DHT22;57384;51.986;4.458;2023-05-28T10:23:16;27.10;47.00
38488;DHT22;57384;51.986;4.458;2023-05-28T10:26:01;27.20;46.80
38488;DHT22;57384;51.986;4.458;2023-05-28T10:28:57;27.30;46.70
38488;DHT22;57384;51.986;4.458;2023-05-28T10:31:44;27.40;46.50
38488;DHT22;57384;51.986;4.458;2023-05-28T10:34:29;27.50;46.30
38488;DHT22;57384;51.986;4.458;2023-05-28T10:37:22;27.60;46.20
38488;DHT22;57384;51.986;4.458;2023-05-28T10:40:21;27.70;46.10
38488;DHT22;57384;51.986;4.458;2023-05-28T10:46:34;27.80;45.60
38488;DHT22;57384;51.986;4.458;2023-05-28T10:52:28;28.00;45.40
38488;DHT22;57384;51.986;4.458;2023-05-28T10:55:18;28.10;45.20
38488;DHT22;57384;51.986;4.458;2023-05-28T11:03:53;28.30;44.90
38488;DHT22;57384;51.986;4.458;2023-05-28T11:06:38;28.40;44.90
38488;DHT22;57384;51.986;4.458;2023-05-28T11:09:22;28.50;44.80
38488;DHT22;57384;51.986;4.458;2023-05-28T11:12:07;28.60;44.70
38488;DHT22;57384;51.986;4.458;2023-05-28T11:14:51;28.80;44.80
38488;DHT22;57384;51.986;4.458;2023-05-28T11:17:39;28.90;44.70
38488;DHT22;57384;51.986;4.458;2023-05-28T11:20:26;29.00;44.60
38488;DHT22;57384;51.986;4.458;2023-05-28T11:23:14;29.10;44.40
38488;DHT22;57384;51.986;4.458;2023-05-28T11:26:00;29.20;44.20
38488;DHT22;57384;51.986;4.458;2023-05-28T11:28:48;29.40;44.20
38488;DHT22;57384;51.986;4.458;2023-05-28T11:31:40;29.50;44.20
38488;DHT22;57384;51.986;4.458;2023-05-28T11:34:28;29.70;44.20
38488;DHT22;57384;51.986;4.458;2023-05-28T11:37:14;29.80;44.00
38488;DHT22;57384;51.986;4.458;2023-05-28T11:40:07;29.90;43.90
38488;DHT22;57384;51.986;4.458;2023-05-28T11:42:57;30.10;43.90
38488;DHT22;57384;51.986;4.458;2023-05-28T11:45:44;30.20;43.80
38488;DHT22;57384;51.986;4.458;2023-05-28T11:48:28;30.40;43.80
38488;DHT22;57384;51.986;4.458;2023-05-28T11:51:13;30.50;43.70
38488;DHT22;57384;51.986;4.458;2023-05-28T11:53:58;30.60;43.60
38488;DHT22;57384;51.986;4.458;2023-05-28T11:56:52;30.70;43.60
38488;DHT22;57384;51.986;4.458;2023-05-28T11:59:36;30.80;43.50
38488;DHT22;57384;51.986;4.458;2023-05-28T12:02:21;30.90;43.40
38488;DHT22;57384;51.986;4.458;2023-05-28T12:05:50;31.10;43.30
38488;DHT22;57384;51.986;4.458;2023-05-28T12:08:17;31.20;43.20
38488;DHT22;57384;51.986;4.458;2023-05-28T12:11:01;31.40;43.20
38488;DHT22;57384;51.986;4.458;2023-05-28T12:13:46;31.50;43.00
38488;DHT22;57384;51.986;4.458;2023-05-28T12:16:30;31.70;42.90
38488;DHT22;57384;51.986;4.458;2023-05-28T12:19:14;31.80;43.30
38488;DHT22;57384;51.986;4.458;2023-05-28T12:21:59;32.00;42.70
38488;DHT22;57384;51.986;4.458;2023-05-28T12:24:49;32.10;42.60
38488;DHT22;57384;51.986;4.458;2023-05-28T12:27:34;32.30;42.50
38488;DHT22;57384;51.986;4.458;2023-05-28T12:30:19;32.40;42.30
38488;DHT22;57384;51.986;4.458;2023-05-28T12:33:03;32.60;42.30
38488;DHT22;57384;51.986;4.458;2023-05-28T12:35:49;32.70;42.00
38488;DHT22;57384;51.986;4.458;2023-05-28T12:38:33;32.80;41.90
38488;DHT22;57384;51.986;4.458;2023-05-28T12:41:17;32.90;41.50
38488;DHT22;57384;51.986;4.458;2023-05-28T12:44:01;33.10;41.40
38488;DHT22;57384;51.986;4.458;2023-05-28T12:46:46;33.20;41.10
38488;DHT22;57384;51.986;4.458;2023-05-28T12:49:30;33.30;41.00
38488;DHT22;57384;51.986;4.458;2023-05-28T12:52:14;33.40;40.70
38488;DHT22;57384;51.986;4.458;2023-05-28T12:54:59;33.50;40.40
38488;DHT22;57384;51.986;4.458;2023-05-28T12:57:43;33.60;40.30
38488;DHT22;57384;51.986;4.458;2023-05-28T13:00:28;33.60;39.90
38488;DHT22;57384;51.986;4.458;2023-05-28T13:03:12;33.80;39.90
38488;DHT22;57384;51.986;4.458;2023-05-28T13:05:56;33.90;39.70
38488;DHT22;57384;51.986;4.458;2023-05-28T13:08:41;34.00;39.60
38488;DHT22;57384;51.986;4.458;2023-05-28T13:11:25;34.10;39.40
38488;DHT22;57384;51.986;4.458;2023-05-28T13:14:09;34.20;39.30
38488;DHT22;57384;51.986;4.458;2023-05-28T13:16:55;34.30;39.00
38488;DHT22;57384;51.986;4.458;2023-05-28T13:19:39;34.40;38.60
38488;DHT22;57384;51.986;4.458;2023-05-28T13:22:24;34.50;38.40
38488;DHT22;57384;51.986;4.458;2023-05-28T13:25:08;34.60;38.30
38488;DHT22;57384;51.986;4.458;2023-05-28T13:27:52;34.70;38.10
38488;DHT22;57384;51.986;4.458;2023-05-28T13:30:37;34.80;38.00
38488;DHT22;57384;51.986;4.458;2023-05-28T13:33:21;34.80;37.70
38488;DHT22;57384;51.986;4.458;2023-05-28T13:36:05;34.90;37.60
38488;DHT22;57384;51.986;4.458;2023-05-28T13:38:50;35.00;37.40
38488;DHT22;57384;51.986;4.458;2023-05-28T13:41:34;35.10;37.30
38488;DHT22;57384;51.986;4.458;2023-05-28T13:44:18;35.20;37.00
38488;DHT22;57384;51.986;4.458;2023-05-28T13:47:02;35.20;36.70
38488;DHT22;57384;51.986;4.458;2023-05-28T13:49:46;35.30;36.70
38488;DHT22;57384;51.986;4.458;2023-05-28T13:52:31;35.30;36.50
38488;DHT22;57384;51.986;4.458;2023-05-28T13:55:15;35.40;36.50
38488;DHT22;57384;51.986;4.458;2023-05-28T13:58:07;35.50;36.20
38488;DHT22;57384;51.986;4.458;2023-05-28T14:00:53;35.50;35.90
38488;DHT22;57384;51.986;4.458;2023-05-28T14:03:37;35.50;35.70
38488;DHT22;57384;51.986;4.458;2023-05-28T14:06:21;35.60;35.50
38488;DHT22;57384;51.986;4.458;2023-05-28T14:09:08;35.60;35.30
38488;DHT22;57384;51.986;4.458;2023-05-28T14:11:52;35.70;35.80
38488;DHT22;57384;51.986;4.458;2023-05-28T14:14:37;35.70;35.10
38488;DHT22;57384;51.986;4.458;2023-05-28T14:17:21;35.70;34.90
38488;DHT22;57384;51.986;4.458;2023-05-28T14:20:05;35.70;34.80
38488;DHT22;57384;51.986;4.458;2023-05-28T14:22:50;35.70;34.50
38488;DHT22;57384;51.986;4.458;2023-05-28T14:25:34;35.70;34.40
38488;DHT22;57384;51.986;4.458;2023-05-28T14:28:18;35.70;34.30
38488;DHT22;57384;51.986;4.458;2023-05-28T14:31:03;35.60;34.20
38488;DHT22;57384;51.986;4.458;2023-05-28T14:33:47;35.60;34.00
38488;DHT22;57384;51.986;4.458;2023-05-28T14:36:31;35.50;33.80
38488;DHT22;57384;51.986;4.458;2023-05-28T14:39:16;35.50;33.70
38488;DHT22;57384;51.986;4.458;2023-05-28T14:42:00;35.40;33.60
38488;DHT22;57384;51.986;4.458;2023-05-28T14:44:44;35.40;33.50
38488;DHT22;57384;51.986;4.458;2023-05-28T14:47:29;35.40;33.50
38488;DHT22;57384;51.986;4.458;2023-05-28T14:50:13;35.40;33.50
38488;DHT22;57384;51.986;4.458;2023-05-28T14:52:57;35.30;33.40
38488;DHT22;57384;51.986;4.458;2023-05-28T14:55:41;35.20;33.30
38488;DHT22;57384;51.986;4.458;2023-05-28T14:58:26;35.10;33.30
38488;DHT22;57384;51.986;4.458;2023-05-28T15:01:10;35.00;33.10
38488;DHT22;57384;51.986;4.458;2023-05-28T15:03:55;35.00;33.10
38488;DHT22;57384;51.986;4.458;2023-05-28T15:06:39;34.80;33.00
38488;DHT22;57384;51.986;4.458;2023-05-28T15:09:23;34.70;33.00
38488;DHT22;57384;51.986;4.458;2023-05-28T15:12:08;34.50;33.00
38488;DHT22;57384;51.986;4.458;2023-05-28T15:14:52;34.40;33.20
38488;DHT22;57384;51.986;4.458;2023-05-28T15:17:36;34.10;33.20
38488;DHT22;57384;51.986;4.458;2023-05-28T15:20:20;33.90;33.30
38488;DHT22;57384;51.986;4.458;2023-05-28T15:23:05;33.70;33.30
38488;DHT22;57384;51.986;4.458;2023-05-28T15:25:49;33.50;33.40
38488;DHT22;57384;51.986;4.458;2023-05-28T15:28:34;33.30;33.50
38488;DHT22;57384;51.986;4.458;2023-05-28T15:31:18;33.10;33.50
38488;DHT22;57384;51.986;4.458;2023-05-28T15:34:03;32.90;33.50
38488;DHT22;57384;51.986;4.458;2023-05-28T15:36:47;32.80;33.50
38488;DHT22;57384;51.986;4.458;2023-05-28T15:39:31;32.70;33.40
38488;DHT22;57384;51.986;4.458;2023-05-28T15:42:16;32.60;33.30
38488;DHT22;57384;51.986;4.458;2023-05-28T15:45:01;32.50;33.40
38488;DHT22;57384;51.986;4.458;2023-05-28T15:47:45;32.40;33.40
38488;DHT22;57384;51.986;4.458;2023-05-28T15:50:37;32.20;33.30
38488;DHT22;57384;51.986;4.458;2023-05-28T15:53:22;32.10;33.50
38488;DHT22;57384;51.986;4.458;2023-05-28T15:56:08;31.80;33.30
38488;DHT22;57384;51.986;4.458;2023-05-28T15:58:53;31.60;33.50
38488;DHT22;57384;51.986;4.458;2023-05-28T16:01:37;31.40;33.60
38488;DHT22;57384;51.986;4.458;2023-05-28T16:04:25;31.20;33.50
38488;DHT22;57384;51.986;4.458;2023-05-28T16:07:09;31.00;33.70
38488;DHT22;57384;51.986;4.458;2023-05-28T16:09:53;30.80;33.80
38488;DHT22;57384;51.986;4.458;2023-05-28T16:12:38;30.60;33.90
38488;DHT22;57384;51.986;4.458;2023-05-28T16:15:22;30.40;34.00
38488;DHT22;57384;51.986;4.458;2023-05-28T16:18:07;30.10;34.10
38488;DHT22;57384;51.986;4.458;2023-05-28T16:20:51;30.00;34.20
38488;DHT22;57384;51.986;4.458;2023-05-28T16:23:36;29.80;34.20
38488;DHT22;57384;51.986;4.458;2023-05-28T16:26:20;29.60;34.30
38488;DHT22;57384;51.986;4.458;2023-05-28T16:29:05;29.40;34.40
38488;DHT22;57384;51.986;4.458;2023-05-28T16:31:49;29.20;34.30
38488;DHT22;57384;51.986;4.458;2023-05-28T16:34:33;29.00;34.50
38488;DHT22;57384;51.986;4.458;2023-05-28T16:37:18;28.80;34.50
38488;DHT22;57384;51.986;4.458;2023-05-28T16:40:02;28.60;34.60
38488;DHT22;57384;51.986;4.458;2023-05-28T16:42:46;28.50;34.80
38488;DHT22;57384;51.986;4.458;2023-05-28T16:45:31;28.40;34.90
38488;DHT22;57384;51.986;4.458;2023-05-28T16:48:15;28.20;35.00
38488;DHT22;57384;51.986;4.458;2023-05-28T16:50:59;28.10;35.20
38488;DHT22;57384;51.986;4.458;2023-05-28T16:53:47;27.80;35.30
38488;DHT22;57384;51.986;4.458;2023-05-28T16:56:31;27.70;35.50
38488;DHT22;57384;51.986;4.458;2023-05-28T16:59:16;27.50;35.60
38488;DHT22;57384;51.986;4.458;2023-05-28T17:02:00;27.40;35.80
38488;DHT22;57384;51.986;4.458;2023-05-28T17:04:44;27.20;36.00
38488;DHT22;57384;51.986;4.458;2023-05-28T17:07:28;27.00;36.10
38488;DHT22;57384;51.986;4.458;2023-05-28T17:10:13;26.90;36.20
38488;DHT22;57384;51.986;4.458;2023-05-28T17:12:57;26.70;36.50
38488;DHT22;57384;51.986;4.458;2023-05-28T17:15:41;26.60;36.60
38488;DHT22;57384;51.986;4.458;2023-05-28T17:18:25;26.40;36.70
38488;DHT22;57384;51.986;4.458;2023-05-28T17:21:10;26.30;36.90
38488;DHT22;57384;51.986;4.458;2023-05-28T17:23:54;26.10;37.00
38488;DHT22;57384;51.986;4.458;2023-05-28T17:26:39;25.90;37.10
38488;DHT22;57384;51.986;4.458;2023-05-28T17:29:23;25.80;37.40
38488;DHT22;57384;51.986;4.458;2023-05-28T17:32:07;25.70;37.50
38488;DHT22;57384;51.986;4.458;2023-05-28T17:34:53;25.50;37.50
38488;DHT22;57384;51.986;4.458;2023-05-28T17:37:37;25.40;37.60